Norfolk, Virginia
Traffic Map
Current Weather Conditions
Norfolk, Virginia
Broken Clouds
Broken Clouds
70°
Feels Like: 70°
Wind Chill: 70° Ceiling: 3000
Heat Index: 70° Visibility: 10mi
Dew Point: 67° Wind: 0mph
Humidity: 90% Direction: ° ()
Pressure: 29.92in Gusts: 0mph
Raw Report DataKORF 310751Z AUTO 00000KT 10SM SCT005 BKN030 21/19 A2992 RMK AO2 SLP130 T02110194 TSNO
Traffic Incident Summary
Active as of:
Severity:
Category:
InformationThere was an issue retrieving the traffic information for this location. Please try a different location or try again shortly.
Advertisements
Track Severe Weather on mobile